createdAt,value
2019-03-15T00:00:33.103Z,2.73
2019-03-15T00:01:39.276Z,3.70
2019-03-15T00:02:43.655Z,2.63
2019-03-15T00:03:47.974Z,2.43
2019-03-15T00:04:52.298Z,2.70
2019-03-15T00:05:56.621Z,2.73
2019-03-15T00:07:00.940Z,2.80
2019-03-15T00:08:06.058Z,2.53
2019-03-15T00:09:10.901Z,2.93
2019-03-15T00:10:15.476Z,2.50
2019-03-15T00:11:19.791Z,2.70
2019-03-15T00:12:24.113Z,2.83
2019-03-15T00:13:28.430Z,3.17
2019-03-15T00:14:32.820Z,2.87
2019-03-15T00:15:37.326Z,2.60
2019-03-15T00:16:41.620Z,2.70
2019-03-15T00:17:46.005Z,2.73
2019-03-15T00:18:50.311Z,2.30
2019-03-15T00:19:54.631Z,2.33
2019-03-15T00:20:58.940Z,2.50
2019-03-15T00:22:03.314Z,2.70
2019-03-15T00:23:07.615Z,3.17
2019-03-15T00:24:11.935Z,2.87
2019-03-15T00:25:16.262Z,2.77
2019-03-15T00:26:20.567Z,2.60
2019-03-15T00:27:24.898Z,2.97
2019-03-15T00:28:29.335Z,3.10
2019-03-15T00:29:33.659Z,3.23
2019-03-15T00:30:38.036Z,3.03
2019-03-15T00:31:42.374Z,2.80
2019-03-15T00:32:46.667Z,3.23
2019-03-15T00:33:50.995Z,3.60
2019-03-15T00:34:55.311Z,3.67
2019-03-15T00:35:59.638Z,3.43
2019-03-15T00:37:04.295Z,3.57
2019-03-15T00:38:08.598Z,3.00
2019-03-15T00:39:12.906Z,3.47
2019-03-15T00:40:17.314Z,3.40
2019-03-15T00:41:21.655Z,3.20
2019-03-15T00:42:26.056Z,3.17
2019-03-15T00:43:30.364Z,3.10
2019-03-15T00:44:34.667Z,3.57
2019-03-15T00:45:39.093Z,4.17
2019-03-15T00:46:43.423Z,3.13
2019-03-15T00:47:47.858Z,3.73
2019-03-15T00:48:52.225Z,3.87
2019-03-15T00:49:56.579Z,3.27
2019-03-15T00:51:00.887Z,3.63
2019-03-15T00:52:05.511Z,3.00
2019-03-15T00:53:09.971Z,3.77
2019-03-15T00:54:14.288Z,2.57
2019-03-15T00:55:19.665Z,3.03
2019-03-15T00:56:24.197Z,2.83
2019-03-15T00:57:28.527Z,2.03
2019-03-15T00:58:32.847Z,2.30
2019-03-15T00:59:37.178Z,2.27
2019-03-15T01:00:41.527Z,2.53
2019-03-15T01:01:45.856Z,2.90
2019-03-15T01:02:50.239Z,2.30
2019-03-15T01:03:54.589Z,2.60
2019-03-15T01:04:58.884Z,2.10
2019-03-15T01:06:03.203Z,2.03
2019-03-15T01:07:07.603Z,2.10
2019-03-15T01:08:12.011Z,2.30
2019-03-15T01:09:16.329Z,2.73
2019-03-15T01:10:20.657Z,2.00
2019-03-15T01:11:24.986Z,2.13
2019-03-15T01:12:29.331Z,2.07
2019-03-15T01:13:33.628Z,2.40
2019-03-15T01:14:37.946Z,2.27
2019-03-15T01:15:42.258Z,2.13
2019-03-15T01:16:46.580Z,2.17
2019-03-15T01:17:50.964Z,1.80
2019-03-15T01:18:55.262Z,2.67
2019-03-15T01:19:59.631Z,2.47
2019-03-15T01:21:03.945Z,3.20
2019-03-15T01:22:08.306Z,2.60
2019-03-15T01:23:12.607Z,2.37
2019-03-15T01:24:16.946Z,3.13
2019-03-15T01:25:21.313Z,2.53
2019-03-15T01:26:25.620Z,2.70
2019-03-15T01:27:29.945Z,2.67
2019-03-15T01:28:34.263Z,2.50
2019-03-15T01:29:38.630Z,3.30
2019-03-15T01:30:43.025Z,2.70
2019-03-15T01:31:47.355Z,3.37
2019-03-15T01:32:51.675Z,2.93
2019-03-15T01:33:55.967Z,2.97
2019-03-15T01:35:00.492Z,3.33
2019-03-15T01:36:04.829Z,2.33
2019-03-15T01:37:09.126Z,2.90
2019-03-15T01:38:13.638Z,2.30
2019-03-15T01:39:17.923Z,2.57
2019-03-15T01:40:22.231Z,2.57
2019-03-15T01:41:26.551Z,2.90
2019-03-15T01:42:30.857Z,2.80
2019-03-15T01:43:35.170Z,2.63
2019-03-15T01:44:39.524Z,2.40
2019-03-15T01:45:43.824Z,2.03
2019-03-15T01:46:48.166Z,2.47
2019-03-15T01:47:52.536Z,3.37
2019-03-15T01:48:56.898Z,3.97
2019-03-15T01:50:01.194Z,3.00
2019-03-15T01:51:05.514Z,2.60
2019-03-15T01:52:09.831Z,2.70
2019-03-15T01:53:14.130Z,2.50
2019-03-15T01:54:18.440Z,2.20
2019-03-15T01:55:22.754Z,2.73
2019-03-15T01:56:27.166Z,2.63
2019-03-15T01:57:31.480Z,2.10
2019-03-15T01:58:35.795Z,2.40
2019-03-15T01:59:40.151Z,2.50
2019-03-15T02:00:44.470Z,2.27
2019-03-15T02:01:48.798Z,2.93
2019-03-15T02:02:53.092Z,2.87
2019-03-15T02:03:57.455Z,3.50
2019-03-15T02:05:01.780Z,2.87
2019-03-15T02:06:06.131Z,2.63
2019-03-15T02:07:10.447Z,3.07
2019-03-15T02:08:14.771Z,2.93
2019-03-15T02:09:19.115Z,3.00
2019-03-15T02:10:23.477Z,2.97
2019-03-15T02:11:27.799Z,3.10
2019-03-15T02:12:32.093Z,2.60
2019-03-15T02:13:36.410Z,3.67
2019-03-15T02:14:40.707Z,3.10
2019-03-15T02:15:45.016Z,3.17
2019-03-15T02:16:49.391Z,3.60
2019-03-15T02:17:53.674Z,2.87
2019-03-15T02:18:58.301Z,3.10
2019-03-15T02:20:02.787Z,2.90
2019-03-15T02:21:07.079Z,2.97
2019-03-15T02:22:11.397Z,3.70
2019-03-15T02:23:15.730Z,3.97
2019-03-15T02:24:20.171Z,3.10
2019-03-15T02:25:24.479Z,3.67
2019-03-15T02:26:31.938Z,3.00
2019-03-15T02:27:36.301Z,3.77
2019-03-15T02:28:40.679Z,3.70
2019-03-15T02:29:44.979Z,3.47
2019-03-15T02:30:49.279Z,4.50
2019-03-15T02:31:53.584Z,4.37
2019-03-15T02:32:57.963Z,5.77
2019-03-15T02:34:02.369Z,4.57
2019-03-15T02:35:06.691Z,4.47
2019-03-15T02:36:11.258Z,4.30
2019-03-15T02:37:15.792Z,4.37
2019-03-15T02:38:20.112Z,3.60
2019-03-15T02:39:24.431Z,3.77
2019-03-15T02:40:28.760Z,4.10
2019-03-15T02:41:33.059Z,3.07
2019-03-15T02:42:37.375Z,3.37
2019-03-15T02:43:41.708Z,3.53
2019-03-15T02:44:46.066Z,3.67
2019-03-15T02:45:50.403Z,3.73
2019-03-15T02:46:54.739Z,3.40
2019-03-15T02:47:59.039Z,2.60
2019-03-15T02:49:03.351Z,2.57
2019-03-15T02:50:07.829Z,2.50
2019-03-15T02:51:12.131Z,2.67
2019-03-15T02:52:16.434Z,2.30
2019-03-15T02:53:20.733Z,2.60
2019-03-15T02:54:25.039Z,2.60
2019-03-15T02:55:29.332Z,2.63
2019-03-15T02:56:33.624Z,2.10
2019-03-15T02:57:37.944Z,2.40
2019-03-15T02:58:42.319Z,2.50
2019-03-15T02:59:47.255Z,2.63
2019-03-15T03:00:52.019Z,3.13
2019-03-15T03:01:56.404Z,2.90
2019-03-15T03:03:00.705Z,3.00
2019-03-15T03:04:05.004Z,2.87
2019-03-15T03:05:09.653Z,2.87
2019-03-15T03:06:13.950Z,2.90
2019-03-15T03:07:18.251Z,3.03
2019-03-15T03:08:22.552Z,2.80
2019-03-15T03:09:26.943Z,3.00
2019-03-15T03:10:31.234Z,3.03
2019-03-15T03:11:35.583Z,3.07
2019-03-15T03:12:39.986Z,3.50
2019-03-15T03:13:44.365Z,3.00
2019-03-15T03:14:48.751Z,2.90
2019-03-15T03:15:53.024Z,3.30
2019-03-15T03:16:57.347Z,2.70
2019-03-15T03:18:01.651Z,3.67
2019-03-15T03:19:05.967Z,2.70
2019-03-15T03:20:10.363Z,2.97
2019-03-15T03:21:15.297Z,2.67
2019-03-15T03:22:19.960Z,2.63
2019-03-15T03:23:24.277Z,3.50
2019-03-15T03:24:28.600Z,2.90
2019-03-15T03:25:32.943Z,2.87
2019-03-15T03:26:37.403Z,3.10
2019-03-15T03:27:41.720Z,3.10
2019-03-15T03:28:46.087Z,2.90
2019-03-15T03:29:51.228Z,2.67
2019-03-15T03:30:55.692Z,3.17
2019-03-15T03:31:59.988Z,3.87
2019-03-15T03:33:04.330Z,3.90
2019-03-15T03:34:08.912Z,3.73
2019-03-15T03:35:13.408Z,3.20
2019-03-15T03:36:17.739Z,3.10
2019-03-15T03:37:22.125Z,3.60
2019-03-15T03:38:26.501Z,3.13
2019-03-15T03:39:30.812Z,3.30
2019-03-15T03:40:35.388Z,3.50
2019-03-15T03:41:39.708Z,3.37
2019-03-15T03:42:44.021Z,3.77
2019-03-15T03:43:48.315Z,3.37
2019-03-15T03:44:52.619Z,3.13
2019-03-15T03:45:56.995Z,3.40
2019-03-15T03:47:01.365Z,3.47
2019-03-15T03:48:05.702Z,3.50
2019-03-15T03:49:10.084Z,3.13
2019-03-15T03:50:14.463Z,3.20
2019-03-15T03:51:18.966Z,2.80
2019-03-15T03:52:23.340Z,2.83
2019-03-15T03:53:27.814Z,2.73
2019-03-15T03:54:32.406Z,3.00
2019-03-15T03:55:36.772Z,3.10
2019-03-15T03:56:41.178Z,2.73
2019-03-15T03:57:45.557Z,3.90
2019-03-15T03:58:49.923Z,2.70
2019-03-15T03:59:54.212Z,2.90
2019-03-15T04:00:58.578Z,2.77
2019-03-15T04:02:03.165Z,3.00
2019-03-15T04:03:07.772Z,3.87
2019-03-15T04:04:12.065Z,3.53
2019-03-15T04:05:16.446Z,3.67
2019-03-15T04:06:20.903Z,3.80
2019-03-15T04:07:25.211Z,3.17
2019-03-15T04:08:29.544Z,3.00
2019-03-15T04:09:33.870Z,3.47
2019-03-15T04:10:38.228Z,3.07
2019-03-15T04:11:54.689Z,3.20
2019-03-15T04:12:48.533Z,3.73
2019-03-15T04:13:52.847Z,3.87
2019-03-15T04:14:57.158Z,3.87
2019-03-15T04:16:01.455Z,3.53
2019-03-15T04:17:05.879Z,3.20
2019-03-15T04:18:10.253Z,3.50
2019-03-15T04:19:14.579Z,2.90
2019-03-15T04:20:18.874Z,4.17
2019-03-15T04:21:23.274Z,4.10
2019-03-15T04:22:27.568Z,4.70
2019-03-15T04:23:31.926Z,4.50
2019-03-15T04:24:36.207Z,4.23
2019-03-15T04:25:40.719Z,4.03
2019-03-15T04:26:45.202Z,4.00
2019-03-15T04:27:49.514Z,4.20
2019-03-15T04:28:56.854Z,4.33
2019-03-15T04:30:02.298Z,3.90
2019-03-15T04:31:06.770Z,4.30
2019-03-15T04:32:11.334Z,4.53
2019-03-15T04:33:15.623Z,6.13
2019-03-15T04:34:19.946Z,4.70
2019-03-15T04:35:24.353Z,4.67
2019-03-15T04:36:28.686Z,4.53
2019-03-15T04:37:32.999Z,5.17
2019-03-15T04:38:37.392Z,4.63
2019-03-15T04:39:41.684Z,6.17
2019-03-15T04:40:45.995Z,5.60
2019-03-15T04:41:50.375Z,6.60
2019-03-15T04:42:54.683Z,6.03
2019-03-15T04:43:59.011Z,6.90
2019-03-15T04:45:03.316Z,7.53
2019-03-15T04:46:07.595Z,6.63
2019-03-15T04:47:11.887Z,7.40
2019-03-15T04:48:16.171Z,7.23
2019-03-15T04:49:20.482Z,7.63
2019-03-15T04:50:24.774Z,7.27
2019-03-15T04:51:29.937Z,7.57
2019-03-15T04:52:34.395Z,8.23
2019-03-15T04:53:38.683Z,7.27
2019-03-15T04:54:42.994Z,6.60
2019-03-15T04:55:47.296Z,8.00
2019-03-15T04:56:51.609Z,7.80
2019-03-15T04:57:55.960Z,6.77
2019-03-15T04:59:00.356Z,7.77
2019-03-15T05:00:05.137Z,6.67
2019-03-15T05:01:09.499Z,7.23
2019-03-15T05:02:13.854Z,7.73
2019-03-15T05:03:18.266Z,8.67
2019-03-15T05:04:22.599Z,7.03
2019-03-15T05:05:26.940Z,7.73
2019-03-15T05:06:31.254Z,6.90
2019-03-15T05:07:35.632Z,6.80
2019-03-15T05:08:39.933Z,7.80
2019-03-15T05:09:44.252Z,6.83
2019-03-15T05:10:48.554Z,7.30
2019-03-15T05:11:52.931Z,6.50
2019-03-15T05:12:57.374Z,6.63
2019-03-15T05:14:01.668Z,6.63
2019-03-15T05:15:06.442Z,7.10
2019-03-15T05:16:10.746Z,7.30
2019-03-15T05:17:15.164Z,6.77
2019-03-15T05:18:19.474Z,6.47
2019-03-15T05:19:23.772Z,6.30
2019-03-15T05:20:28.060Z,6.37
2019-03-15T05:21:32.340Z,7.03
2019-03-15T05:22:36.708Z,7.47
2019-03-15T05:23:41.043Z,7.40
2019-03-15T05:24:45.645Z,7.33
2019-03-15T05:25:50.074Z,6.50
2019-03-15T05:26:54.450Z,6.60
2019-03-15T05:27:58.842Z,7.40
2019-03-15T05:29:03.156Z,7.63
2019-03-15T05:30:08.778Z,7.00
2019-03-15T05:31:13.130Z,7.00
2019-03-15T05:32:17.511Z,6.10
2019-03-15T05:33:21.879Z,6.47
2019-03-15T05:34:26.367Z,7.80
2019-03-15T05:35:30.727Z,7.30
2019-03-15T05:36:35.146Z,6.73
2019-03-15T05:37:39.499Z,8.47
2019-03-15T05:38:43.983Z,7.77
2019-03-15T05:39:48.280Z,6.63
2019-03-15T05:40:53.135Z,7.20
2019-03-15T05:41:57.474Z,7.13
2019-03-15T05:43:02.062Z,7.20
2019-03-15T05:44:06.375Z,6.73
2019-03-15T05:45:10.902Z,6.93
2019-03-15T05:46:15.229Z,7.30
2019-03-15T05:47:19.519Z,7.50
2019-03-15T05:48:23.857Z,7.57
2019-03-15T05:49:28.232Z,7.07
2019-03-15T05:50:32.891Z,8.00
2019-03-15T05:51:38.235Z,6.90
2019-03-15T05:52:42.571Z,6.43
2019-03-15T05:53:46.984Z,7.13
2019-03-15T05:54:52.235Z,7.17
2019-03-15T05:55:57.303Z,7.27
2019-03-15T05:57:01.640Z,6.53
2019-03-15T05:58:05.971Z,8.07
2019-03-15T05:59:10.315Z,6.80
2019-03-15T06:00:14.763Z,7.00
2019-03-15T06:01:19.161Z,7.83
2019-03-15T06:02:23.519Z,7.90
2019-03-15T06:03:28.024Z,7.47
2019-03-15T06:04:32.418Z,7.83
2019-03-15T06:05:36.766Z,7.57
2019-03-15T06:06:41.493Z,7.20
2019-03-15T06:07:46.083Z,8.60
2019-03-15T06:08:50.582Z,8.30
2019-03-15T06:09:54.998Z,8.13
2019-03-15T06:10:59.740Z,7.47
2019-03-15T06:12:04.320Z,7.37
2019-03-15T06:13:09.028Z,6.83
2019-03-15T06:14:13.478Z,7.67
2019-03-15T06:15:17.833Z,7.67
2019-03-15T06:16:22.450Z,7.40
2019-03-15T06:17:26.918Z,7.80
2019-03-15T06:18:31.441Z,7.60
2019-03-15T06:19:35.845Z,7.67
2019-03-15T06:20:40.195Z,6.60
2019-03-15T06:21:46.058Z,7.50
2019-03-15T06:22:50.366Z,7.97
2019-03-15T06:23:55.204Z,7.40
2019-03-15T06:24:59.556Z,7.97
2019-03-15T06:26:04.001Z,6.63
2019-03-15T06:27:08.497Z,7.30
2019-03-15T06:28:12.887Z,7.33
2019-03-15T06:29:17.449Z,7.10
2019-03-15T06:30:21.784Z,7.20
2019-03-15T06:31:26.278Z,7.70
2019-03-15T06:32:30.723Z,7.27
2019-03-15T06:33:35.059Z,7.97
2019-03-15T06:34:39.706Z,6.77
2019-03-15T06:35:44.127Z,7.57
2019-03-15T06:36:48.501Z,6.97
2019-03-15T06:37:52.981Z,7.40
2019-03-15T06:38:57.390Z,7.90
2019-03-15T06:40:02.517Z,6.93
2019-03-15T06:41:07.394Z,7.30
2019-03-15T06:42:11.745Z,6.80
2019-03-15T06:43:16.041Z,5.80
2019-03-15T06:44:20.347Z,7.03
2019-03-15T06:45:24.676Z,6.73
2019-03-15T06:46:29.114Z,7.33
2019-03-15T06:47:33.801Z,6.27
2019-03-15T06:48:38.131Z,7.13
2019-03-15T06:49:42.457Z,6.80
2019-03-15T06:50:46.799Z,6.83
2019-03-15T06:51:51.119Z,5.87
2019-03-15T06:52:55.519Z,6.53
2019-03-15T06:54:10.971Z,6.43
2019-03-15T06:55:06.274Z,6.70
2019-03-15T06:56:10.632Z,7.57
2019-03-15T06:57:15.033Z,7.30
2019-03-15T06:58:20.715Z,6.37
2019-03-15T06:59:25.039Z,6.03
2019-03-15T07:00:29.396Z,5.93
2019-03-15T07:01:33.921Z,6.30
2019-03-15T07:02:38.489Z,6.03
2019-03-15T07:03:42.772Z,6.50
2019-03-15T07:04:47.088Z,7.33
2019-03-15T07:05:51.395Z,5.83
2019-03-15T07:06:55.803Z,6.47
2019-03-15T07:08:00.123Z,6.53
2019-03-15T07:09:07.331Z,6.40
2019-03-15T07:10:12.058Z,6.63
2019-03-15T07:11:16.755Z,6.90
2019-03-15T07:12:21.402Z,6.57
2019-03-15T07:13:25.875Z,6.23
2019-03-15T07:14:30.243Z,5.87
2019-03-15T07:15:34.586Z,6.00
2019-03-15T07:16:39.123Z,7.03
2019-03-15T07:17:43.932Z,6.33
2019-03-15T07:18:48.278Z,6.57
2019-03-15T07:19:52.602Z,5.87
2019-03-15T07:20:57.010Z,6.13
2019-03-15T07:22:01.383Z,6.57
2019-03-15T07:23:06.049Z,5.93
2019-03-15T07:24:10.411Z,6.47
2019-03-15T07:25:15.086Z,7.40
2019-03-15T07:26:19.632Z,6.73
2019-03-15T07:27:24.043Z,5.60
2019-03-15T07:28:28.412Z,6.87
2019-03-15T07:29:32.895Z,5.70
2019-03-15T07:30:37.305Z,6.23
2019-03-15T07:31:41.687Z,6.17
2019-03-15T07:32:46.232Z,6.30
2019-03-15T07:33:50.572Z,6.80
2019-03-15T07:34:54.966Z,6.00
2019-03-15T07:35:59.705Z,6.17
2019-03-15T07:37:04.312Z,6.47
2019-03-15T07:38:08.673Z,5.63
2019-03-15T07:39:13.141Z,6.47
2019-03-15T07:40:18.294Z,6.40
2019-03-15T07:41:25.279Z,6.43
2019-03-15T07:42:28.706Z,7.53
2019-03-15T07:43:33.039Z,6.63
2019-03-15T07:44:37.340Z,6.70
2019-03-15T07:45:41.665Z,6.50
2019-03-15T07:46:45.949Z,6.60
2019-03-15T07:47:50.423Z,6.60
2019-03-15T07:48:54.850Z,7.10
2019-03-15T07:49:59.202Z,6.40
2019-03-15T07:51:03.551Z,6.87
2019-03-15T07:52:07.859Z,6.73
2019-03-15T07:53:12.158Z,6.13
2019-03-15T07:54:16.495Z,6.83
2019-03-15T07:55:20.955Z,7.63
2019-03-15T07:56:28.478Z,7.63
2019-03-15T07:57:31.405Z,6.90
2019-03-15T07:58:35.777Z,6.83
2019-03-15T07:59:40.213Z,6.90
2019-03-15T08:00:44.704Z,7.63
2019-03-15T08:01:52.577Z,6.80
2019-03-15T08:02:55.323Z,7.40
2019-03-15T08:04:00.075Z,7.20
2019-03-15T08:05:04.800Z,7.73
2019-03-15T08:06:09.152Z,8.73
2019-03-15T08:07:13.448Z,8.33
2019-03-15T08:08:17.955Z,8.40
2019-03-15T08:09:22.317Z,9.20
2019-03-15T08:10:26.670Z,8.20
2019-03-15T08:11:31.045Z,8.03
2019-03-15T08:12:38.545Z,7.53
2019-03-15T08:13:41.703Z,7.70
2019-03-15T08:14:46.065Z,7.67
2019-03-15T08:15:50.416Z,8.43
2019-03-15T08:16:54.734Z,8.40
2019-03-15T08:17:59.054Z,9.07
2019-03-15T08:19:05.015Z,8.23
2019-03-15T08:20:10.102Z,9.77
2019-03-15T08:21:14.448Z,10.30
2019-03-15T08:22:18.983Z,8.63
2019-03-15T08:23:23.531Z,9.23
2019-03-15T08:24:28.065Z,9.37
2019-03-15T08:25:32.514Z,8.67
2019-03-15T08:26:36.924Z,9.00
2019-03-15T08:27:41.500Z,8.87
2019-03-15T08:28:45.814Z,8.70
2019-03-15T08:29:52.596Z,8.97
2019-03-15T08:30:56.351Z,9.20
2019-03-15T08:32:00.687Z,8.80
2019-03-15T08:33:10.348Z,9.03
2019-03-15T08:34:11.324Z,10.10
2019-03-15T08:35:15.916Z,9.23
2019-03-15T08:36:20.526Z,9.33
2019-03-15T08:37:25.327Z,9.93
2019-03-15T08:38:29.747Z,10.23
2019-03-15T08:39:34.068Z,10.37
2019-03-15T08:40:38.456Z,9.17
2019-03-15T08:41:42.804Z,10.07
2019-03-15T08:42:47.116Z,10.30
2019-03-15T08:43:51.429Z,11.43
2019-03-15T08:44:55.754Z,11.50
2019-03-15T08:46:02.823Z,10.47
2019-03-15T08:47:06.188Z,12.07
2019-03-15T08:48:10.615Z,12.27
2019-03-15T08:49:15.097Z,10.80
2019-03-15T08:50:19.554Z,11.57
2019-03-15T08:51:24.373Z,11.87
2019-03-15T08:52:28.735Z,11.37
2019-03-15T08:53:33.053Z,11.20
2019-03-15T08:54:37.481Z,11.80
2019-03-15T08:55:41.964Z,11.70
2019-03-15T08:56:46.339Z,11.07
2019-03-15T08:57:50.749Z,10.77
2019-03-15T08:58:55.035Z,10.73
2019-03-15T08:59:59.800Z,11.83
2019-03-15T09:01:04.372Z,12.13
2019-03-15T09:02:08.861Z,10.70
2019-03-15T09:03:22.788Z,10.83
2019-03-15T09:04:21.610Z,11.43
2019-03-15T09:05:25.435Z,10.20
2019-03-15T09:06:29.805Z,11.47
2019-03-15T09:07:34.123Z,11.50
2019-03-15T09:08:38.457Z,10.93
2019-03-15T09:09:42.844Z,11.87
2019-03-15T09:10:47.340Z,10.77
2019-03-15T09:11:51.663Z,11.63
2019-03-15T09:12:56.310Z,10.83
2019-03-15T09:14:00.692Z,11.43
2019-03-15T09:15:05.373Z,11.60
2019-03-15T09:16:09.876Z,12.10
2019-03-15T09:17:14.193Z,11.63
2019-03-15T09:18:18.771Z,11.03
2019-03-15T09:19:23.432Z,11.20
2019-03-15T09:20:30.128Z,11.10
2019-03-15T09:21:34.254Z,11.63
2019-03-15T09:22:38.668Z,10.73
2019-03-15T09:23:43.076Z,11.00
2019-03-15T09:24:47.498Z,11.43
2019-03-15T09:25:52.346Z,9.90
2019-03-15T09:26:56.752Z,9.40
2019-03-15T09:28:03.255Z,9.17
2019-03-15T09:29:07.658Z,9.83
2019-03-15T09:30:22.619Z,9.73
2019-03-15T09:31:18.385Z,8.80
2019-03-15T09:32:22.735Z,8.90
2019-03-15T09:33:27.416Z,8.67
2019-03-15T09:34:34.061Z,8.23
2019-03-15T09:35:38.690Z,6.90
2019-03-15T09:36:50.008Z,7.73
2019-03-15T09:37:49.273Z,7.33
2019-03-15T09:38:53.916Z,6.87
2019-03-15T09:39:58.240Z,7.37
2019-03-15T09:41:02.832Z,7.17
2019-03-15T09:42:07.212Z,7.63
2019-03-15T09:43:11.556Z,6.43
2019-03-15T09:44:15.991Z,6.03
2019-03-15T09:45:20.488Z,6.30
2019-03-15T09:46:24.884Z,6.20
2019-03-15T09:47:29.301Z,5.53
2019-03-15T09:48:33.617Z,6.50
2019-03-15T09:49:38.747Z,6.03
2019-03-15T09:50:51.218Z,5.33
2019-03-15T09:51:50.171Z,5.77
2019-03-15T09:52:54.624Z,5.37
2019-03-15T09:53:59.016Z,5.83
2019-03-15T09:55:03.518Z,5.17
2019-03-15T09:56:08.301Z,5.17
2019-03-15T09:57:12.729Z,5.30
2019-03-15T09:58:17.275Z,5.00
2019-03-15T09:59:24.891Z,6.33
2019-03-15T10:00:29.364Z,5.47
2019-03-15T10:01:35.505Z,5.43
2019-03-15T10:02:39.904Z,5.10
2019-03-15T10:03:44.266Z,4.60
2019-03-15T10:04:48.660Z,4.53
2019-03-15T10:05:53.031Z,4.17
2019-03-15T10:06:58.383Z,5.10
2019-03-15T10:08:02.675Z,4.07
2019-03-15T10:09:07.850Z,4.27
2019-03-15T10:10:14.091Z,4.17
2019-03-15T10:11:18.554Z,4.40
2019-03-15T10:12:22.835Z,4.50
2019-03-15T10:13:27.280Z,4.27
2019-03-15T10:14:31.608Z,5.37
2019-03-15T10:15:35.946Z,4.40
2019-03-15T10:16:42.064Z,4.30
2019-03-15T10:17:46.453Z,4.53
2019-03-15T10:18:50.837Z,4.67
2019-03-15T10:19:55.368Z,4.70
2019-03-15T10:20:59.918Z,3.97
2019-03-15T10:22:04.317Z,3.80
2019-03-15T10:23:08.743Z,4.43
2019-03-15T10:24:15.650Z,4.40
2019-03-15T10:25:19.079Z,4.53
2019-03-15T10:26:23.628Z,4.73
2019-03-15T10:27:28.155Z,4.60
2019-03-15T10:28:32.607Z,4.40
2019-03-15T10:29:39.998Z,4.87
2019-03-15T10:30:44.476Z,4.77
2019-03-15T10:31:48.996Z,5.60
2019-03-15T10:32:53.483Z,5.27
2019-03-15T10:33:57.983Z,5.07
2019-03-15T10:35:02.409Z,4.87
2019-03-15T10:36:06.854Z,5.43
2019-03-15T10:37:13.402Z,6.10
2019-03-15T10:38:17.716Z,5.80
2019-03-15T10:39:22.007Z,5.80
2019-03-15T10:40:26.459Z,5.67
2019-03-15T10:41:30.787Z,5.60
2019-03-15T10:42:35.273Z,5.80
2019-03-15T10:43:41.049Z,6.40
2019-03-15T10:44:45.373Z,6.03
2019-03-15T10:45:49.912Z,7.40
2019-03-15T10:46:54.296Z,6.63
2019-03-15T10:47:58.901Z,6.07
2019-03-15T10:49:03.369Z,6.93
2019-03-15T10:50:09.164Z,7.00
2019-03-15T10:51:13.525Z,7.30
2019-03-15T10:52:18.263Z,6.63
2019-03-15T10:53:22.819Z,6.27
2019-03-15T10:54:27.297Z,7.10
2019-03-15T10:55:31.716Z,7.37
2019-03-15T10:56:36.108Z,7.03
2019-03-15T10:57:40.516Z,6.43
2019-03-15T10:58:44.820Z,7.53
2019-03-15T10:59:49.115Z,7.00
2019-03-15T11:00:53.467Z,6.80
2019-03-15T11:01:57.931Z,7.30
2019-03-15T11:03:02.348Z,6.60
2019-03-15T11:04:08.529Z,6.77
2019-03-15T11:05:12.971Z,6.93
2019-03-15T11:06:17.364Z,7.40
2019-03-15T11:07:22.080Z,6.60
2019-03-15T11:08:26.374Z,6.23
2019-03-15T11:09:30.901Z,6.40
2019-03-15T11:10:35.387Z,6.67
2019-03-15T11:11:40.131Z,6.60
2019-03-15T11:12:44.646Z,7.27
2019-03-15T11:13:49.144Z,6.87
2019-03-15T11:14:53.705Z,7.33
2019-03-15T11:15:58.009Z,6.53
2019-03-15T11:17:02.356Z,7.27
2019-03-15T11:18:06.853Z,8.27
2019-03-15T11:19:11.334Z,7.03
2019-03-15T11:20:15.863Z,7.90
2019-03-15T11:21:20.195Z,7.03
2019-03-15T11:22:24.604Z,7.30
2019-03-15T11:23:29.094Z,7.87
2019-03-15T11:24:33.442Z,8.40
2019-03-15T11:25:37.884Z,7.40
2019-03-15T11:26:42.359Z,7.57
2019-03-15T11:27:46.751Z,8.40
2019-03-15T11:28:51.075Z,7.93
2019-03-15T11:29:55.615Z,8.20
2019-03-15T11:31:00.849Z,8.73
2019-03-15T11:32:05.395Z,8.53
2019-03-15T11:33:09.923Z,9.30
2019-03-15T11:34:14.302Z,9.27
2019-03-15T11:35:21.218Z,9.63
2019-03-15T11:36:24.914Z,9.17
2019-03-15T11:37:29.287Z,10.17
2019-03-15T11:38:33.605Z,11.23
2019-03-15T11:39:38.111Z,10.00
2019-03-15T11:40:42.665Z,10.93
2019-03-15T11:41:48.649Z,11.40
2019-03-15T11:42:53.060Z,11.63
2019-03-15T11:43:57.511Z,10.50
2019-03-15T11:45:01.915Z,12.37
2019-03-15T11:46:06.352Z,11.43
2019-03-15T11:47:10.823Z,11.87
2019-03-15T11:48:15.260Z,11.33
2019-03-15T11:49:19.602Z,11.77
2019-03-15T11:50:23.934Z,11.83
2019-03-15T11:51:28.267Z,13.07
2019-03-15T11:52:32.837Z,12.90
2019-03-15T11:53:37.308Z,12.13
2019-03-15T11:54:41.746Z,12.20
2019-03-15T11:55:46.286Z,12.37
2019-03-15T11:56:51.015Z,11.27
2019-03-15T11:57:55.694Z,12.03
2019-03-15T11:59:00.048Z,11.77
2019-03-15T12:00:05.531Z,14.20
2019-03-15T12:01:10.075Z,13.67
2019-03-15T12:02:14.521Z,14.17
2019-03-15T12:03:18.875Z,11.93
2019-03-15T12:04:23.314Z,12.37
2019-03-15T12:05:27.668Z,12.97
2019-03-15T12:06:31.972Z,10.77
2019-03-15T12:07:36.427Z,10.73
2019-03-15T12:08:41.536Z,11.00
2019-03-15T12:09:46.139Z,11.17
2019-03-15T12:10:50.587Z,9.67
2019-03-15T12:11:54.881Z,9.53
2019-03-15T12:12:59.464Z,9.10
2019-03-15T12:14:03.762Z,9.27
2019-03-15T12:15:09.227Z,8.97
2019-03-15T12:16:13.691Z,8.87
2019-03-15T12:17:18.011Z,8.33
2019-03-15T12:18:23.498Z,9.40
2019-03-15T12:19:28.066Z,9.70
2019-03-15T12:20:32.466Z,9.60
2019-03-15T12:21:37.226Z,9.47
2019-03-15T12:22:41.581Z,9.20
2019-03-15T12:23:46.033Z,9.57
2019-03-15T12:24:50.349Z,9.10
2019-03-15T12:25:54.691Z,9.33
2019-03-15T12:26:59.068Z,9.43
2019-03-15T12:28:03.493Z,8.90
2019-03-15T12:29:07.866Z,9.57
2019-03-15T12:30:12.466Z,11.10
2019-03-15T12:31:16.769Z,11.17
2019-03-15T12:32:23.772Z,10.40
2019-03-15T12:33:27.291Z,10.17
2019-03-15T12:34:31.711Z,9.90
2019-03-15T12:35:36.344Z,9.17
2019-03-15T12:36:40.782Z,9.30
2019-03-15T12:37:45.142Z,8.23
2019-03-15T12:38:49.648Z,7.60
2019-03-15T12:39:53.947Z,7.43
2019-03-15T12:40:58.356Z,6.23
2019-03-15T12:42:02.674Z,4.60
2019-03-15T12:43:07.088Z,5.97
2019-03-15T12:44:11.591Z,5.57
2019-03-15T12:45:16.045Z,6.13
2019-03-15T12:46:20.446Z,6.00
2019-03-15T12:47:24.848Z,6.67
2019-03-15T12:48:29.304Z,7.27
2019-03-15T12:49:33.651Z,7.87
2019-03-15T12:50:38.007Z,7.70
2019-03-15T12:51:42.470Z,8.10
2019-03-15T12:52:48.224Z,8.20
2019-03-15T12:53:52.989Z,8.73
2019-03-15T12:54:57.466Z,7.90
2019-03-15T12:56:01.982Z,8.17
2019-03-15T12:57:06.579Z,7.80
2019-03-15T12:58:10.969Z,7.70
2019-03-15T12:59:15.348Z,8.00
2019-03-15T13:00:20.179Z,7.90
2019-03-15T13:01:24.703Z,8.23
2019-03-15T13:02:29.091Z,8.13
2019-03-15T13:03:33.577Z,7.43
2019-03-15T13:04:38.019Z,7.57
2019-03-15T13:05:42.432Z,7.83
2019-03-15T13:06:46.887Z,7.87
2019-03-15T13:07:52.217Z,8.20
2019-03-15T13:08:56.957Z,8.33
2019-03-15T13:10:01.403Z,8.83
2019-03-15T13:11:05.959Z,8.80
2019-03-15T13:12:10.294Z,9.10
2019-03-15T13:13:15.204Z,9.63
2019-03-15T13:14:19.679Z,9.50
2019-03-15T13:15:23.997Z,9.30
2019-03-15T13:16:28.319Z,8.87
2019-03-15T13:17:32.711Z,7.87
2019-03-15T13:18:37.053Z,10.07
2019-03-15T13:19:54.219Z,7.77
2019-03-15T13:20:47.470Z,8.90
2019-03-15T13:21:51.841Z,9.53
2019-03-15T13:22:56.164Z,9.70
2019-03-15T13:24:00.503Z,9.47
2019-03-15T13:25:06.344Z,9.13
2019-03-15T13:26:10.691Z,8.50
2019-03-15T13:27:14.983Z,7.53
2019-03-15T13:28:19.359Z,8.03
2019-03-15T13:29:23.854Z,5.87
2019-03-15T13:30:28.287Z,4.53
2019-03-15T13:31:32.639Z,3.50
2019-03-15T13:32:37.149Z,3.87
2019-03-15T13:33:41.567Z,3.50
2019-03-15T13:34:45.968Z,3.63
2019-03-15T13:35:51.800Z,3.00
2019-03-15T13:36:56.280Z,3.60
2019-03-15T13:38:00.678Z,3.20
2019-03-15T13:39:06.948Z,3.57
2019-03-15T13:40:11.546Z,2.97
2019-03-15T13:41:15.907Z,3.13
2019-03-15T13:42:20.393Z,2.97
2019-03-15T13:43:24.788Z,2.97
2019-03-15T13:44:29.160Z,3.00
2019-03-15T13:45:33.608Z,3.20
2019-03-15T13:46:38.019Z,4.07
2019-03-15T13:47:42.734Z,3.30
2019-03-15T13:48:47.132Z,3.00
2019-03-15T13:49:51.438Z,3.40
2019-03-15T13:50:55.800Z,2.67
2019-03-15T13:52:00.136Z,2.97
2019-03-15T13:53:04.515Z,3.00
2019-03-15T13:54:08.856Z,2.83
2019-03-15T13:55:13.428Z,2.90
2019-03-15T13:56:17.800Z,2.90
2019-03-15T13:57:22.107Z,3.27
2019-03-15T13:58:26.545Z,2.50
2019-03-15T13:59:30.872Z,2.63
2019-03-15T14:00:35.361Z,2.70
2019-03-15T14:01:39.777Z,2.63
2019-03-15T14:02:44.149Z,2.30
2019-03-15T14:03:48.581Z,2.60
2019-03-15T14:04:52.868Z,2.83
2019-03-15T14:05:57.182Z,2.57
2019-03-15T14:07:01.533Z,2.83
2019-03-15T14:08:11.536Z,2.87
2019-03-15T14:09:12.089Z,2.50
2019-03-15T14:10:16.528Z,2.40
2019-03-15T14:11:20.995Z,3.30
2019-03-15T14:12:25.548Z,2.83
2019-03-15T14:13:29.904Z,2.60
2019-03-15T14:14:34.299Z,1.93
2019-03-15T14:15:38.738Z,2.37